createdAt,value
2019-05-17T00:04:49.444Z,23.10
2019-05-17T00:14:56.308Z,23.00
2019-05-17T00:25:01.869Z,23.00
2019-05-17T00:35:07.616Z,23.10
2019-05-17T00:45:14.063Z,23.10
2019-05-17T00:55:20.680Z,23.10
2019-05-17T01:05:27.513Z,23.00
2019-05-17T01:15:33.120Z,23.10
2019-05-17T01:25:38.948Z,23.00
2019-05-17T01:35:46.527Z,22.90
2019-05-17T01:45:51.920Z,22.80
2019-05-17T01:56:01.821Z,22.80
2019-05-17T02:06:07.738Z,22.70
2019-05-17T02:16:16.375Z,22.70
2019-05-17T02:26:21.139Z,22.70
2019-05-17T02:36:26.595Z,22.70
2019-05-17T02:46:34.000Z,22.70
2019-05-17T02:56:43.648Z,22.70
2019-05-17T03:06:47.796Z,22.60
2019-05-17T03:16:53.816Z,22.70
2019-05-17T03:27:02.984Z,22.70
2019-05-17T03:37:08.681Z,22.60
2019-05-17T03:47:14.107Z,22.60
2019-05-17T03:57:19.654Z,22.60
2019-05-17T04:07:27.439Z,22.60
2019-05-17T04:17:33.010Z,22.60
2019-05-17T04:27:38.675Z,22.60
2019-05-17T04:37:45.131Z,22.60
2019-05-17T04:47:52.913Z,22.60
2019-05-17T04:57:57.772Z,22.60
2019-05-17T05:08:03.605Z,22.60
2019-05-17T05:18:08.981Z,22.50
2019-05-17T05:28:14.394Z,22.60
2019-05-17T05:38:21.623Z,22.50
2019-05-17T05:48:27.316Z,22.50
2019-05-17T05:58:32.768Z,22.50
2019-05-17T06:08:38.183Z,22.50
2019-05-17T06:18:43.681Z,22.50
2019-05-17T06:28:51.760Z,22.50
2019-05-17T06:38:56.509Z,22.50
2019-05-17T06:49:03.051Z,22.50
2019-05-17T06:59:08.717Z,22.50
2019-05-17T07:09:14.250Z,22.50
2019-05-17T07:19:19.862Z,22.50
2019-05-17T07:29:25.283Z,22.50
2019-05-17T07:39:30.861Z,22.50
2019-05-17T07:49:36.478Z,22.50
2019-05-17T07:59:42.210Z,22.50
2019-05-17T08:09:50.646Z,22.50
2019-05-17T08:19:56.740Z,22.50
2019-05-17T08:30:02.224Z,22.10
2019-05-17T08:40:10.633Z,22.60
2019-05-17T08:50:15.475Z,22.80
2019-05-17T09:00:21.362Z,22.90
2019-05-17T09:10:27.035Z,23.00
2019-05-17T09:20:32.470Z,23.00
2019-05-17T09:30:40.581Z,23.00
2019-05-17T09:40:45.163Z,23.00
2019-05-17T09:50:50.678Z,22.80
2019-05-17T10:00:56.297Z,22.80
2019-05-17T10:11:08.356Z,22.70
2019-05-17T10:21:10.594Z,22.60
2019-05-17T10:31:16.551Z,22.20
2019-05-17T10:41:23.299Z,22.20
2019-05-17T10:51:29.635Z,22.00
2019-05-17T11:01:36.016Z,22.10
2019-05-17T11:11:41.663Z,22.20
2019-05-17T11:21:48.614Z,22.30
2019-05-17T11:31:54.470Z,22.40
2019-05-17T11:41:59.909Z,22.50
2019-05-17T11:52:05.274Z,22.50
2019-05-17T12:02:11.631Z,22.50
2019-05-17T12:12:17.158Z,22.50
2019-05-17T12:22:22.631Z,22.60
2019-05-17T12:32:28.049Z,22.70
2019-05-17T12:42:35.568Z,22.30
2019-05-17T12:52:42.979Z,22.60
2019-05-17T13:02:48.563Z,22.80
2019-05-17T13:12:54.213Z,22.80
2019-05-17T13:23:02.186Z,23.00
2019-05-17T13:33:07.643Z,23.10
2019-05-17T13:43:13.152Z,23.20
2019-05-17T13:53:18.645Z,23.20
2019-05-17T14:03:24.285Z,23.40
2019-05-17T14:13:29.844Z,23.50
2019-05-17T14:23:35.485Z,23.50
2019-05-17T14:33:41.220Z,23.50
2019-05-17T14:43:46.986Z,23.60
2019-05-17T14:53:53.225Z,23.70
2019-05-17T15:03:59.114Z,23.70
2019-05-17T15:14:05.232Z,23.70
2019-05-17T15:24:10.594Z,23.70
2019-05-17T15:34:16.023Z,23.80
2019-05-17T15:44:21.521Z,23.80
2019-05-17T15:54:27.140Z,23.80
2019-05-17T16:04:34.793Z,23.80
2019-05-17T16:14:40.417Z,24.00
2019-05-17T16:24:45.860Z,24.10
2019-05-17T16:34:51.283Z,24.10
2019-05-17T16:44:56.700Z,24.10
2019-05-17T16:55:02.136Z,24.20
2019-05-17T17:05:07.978Z,24.10
2019-05-17T17:15:13.568Z,24.10
2019-05-17T17:25:20.961Z,24.10
2019-05-17T17:35:26.626Z,23.70
2019-05-17T17:45:32.419Z,23.90
2019-05-17T17:55:38.200Z,24.00
2019-05-17T18:05:43.833Z,24.10
2019-05-17T18:15:51.153Z,24.10
2019-05-17T18:25:56.645Z,24.10
2019-05-17T18:36:02.636Z,24.00
2019-05-17T18:46:08.898Z,23.90
2019-05-17T18:56:15.065Z,23.90
2019-05-17T19:06:22.359Z,23.90
2019-05-17T19:16:28.987Z,24.10
2019-05-17T19:26:34.582Z,24.10
2019-05-17T19:36:41.655Z,24.00
2019-05-17T19:46:47.233Z,23.90
2019-05-17T19:56:52.818Z,23.80
2019-05-17T20:06:58.566Z,23.70
2019-05-17T20:17:05.435Z,23.70
2019-05-17T20:27:13.189Z,23.60
2019-05-17T20:37:18.772Z,23.60
2019-05-17T20:47:24.381Z,23.50
2019-05-17T20:57:29.846Z,23.50
2019-05-17T21:07:35.299Z,23.40
2019-05-17T21:17:40.719Z,23.40
2019-05-17T21:27:46.246Z,23.40
2019-05-17T21:37:51.783Z,23.30
2019-05-17T21:47:57.215Z,23.30
2019-05-17T21:58:03.936Z,23.30
2019-05-17T22:08:09.733Z,23.20
2019-05-17T22:18:18.735Z,23.20
2019-05-17T22:28:26.629Z,23.20
2019-05-17T22:38:32.085Z,23.20
2019-05-17T22:48:37.694Z,23.20
2019-05-17T22:58:43.320Z,23.10
2019-05-17T23:08:48.773Z,23.10
2019-05-17T23:19:10.359Z,23.10
2019-05-17T23:29:15.776Z,23.10
2019-05-17T23:39:22.404Z,23.10
2019-05-17T23:49:29.015Z,23.10
2019-05-17T23:59:34.446Z,23.30
